sensor_id;sensor_type;location;lat;lon;timestamp;pressure;altitude;pressure_sealevel;temperature;humidity
11676;BME280;5894;42.768;23.404;2023-07-29T00:01:57;95471.41;;;20.10;83.83
11676;BME280;5894;42.768;23.404;2023-07-29T00:04:26;95473.66;;;20.08;83.87
11676;BME280;5894;42.768;23.404;2023-07-29T00:06:53;95468.59;;;20.00;84.78
11676;BME280;5894;42.768;23.404;2023-07-29T00:09:20;95486.63;;;20.03;85.27
11676;BME280;5894;42.768;23.404;2023-07-29T00:11:47;95485.88;;;20.06;84.80
11676;BME280;5894;42.768;23.404;2023-07-29T00:14:14;95493.13;;;20.05;85.33
11676;BME280;5894;42.768;23.404;2023-07-29T00:16:40;95487.75;;;20.02;86.81
11676;BME280;5894;42.768;23.404;2023-07-29T00:19:08;95490.78;;;20.00;87.42
11676;BME280;5894;42.768;23.404;2023-07-29T00:21:37;95492.31;;;20.01;88.41
11676;BME280;5894;42.768;23.404;2023-07-29T00:24:04;95486.19;;;20.01;90.41
11676;BME280;5894;42.768;23.404;2023-07-29T00:26:31;95482.41;;;20.02;92.47
11676;BME280;5894;42.768;23.404;2023-07-29T00:28:58;95479.66;;;19.98;93.89
11676;BME280;5894;42.768;23.404;2023-07-29T00:31:24;95474.66;;;19.97;96.42
11676;BME280;5894;42.768;23.404;2023-07-29T00:33:51;95472.31;;;19.92;97.22
11676;BME280;5894;42.768;23.404;2023-07-29T00:36:19;95469.66;;;19.92;96.94
11676;BME280;5894;42.768;23.404;2023-07-29T00:38:48;95469.28;;;19.93;96.77
11676;BME280;5894;42.768;23.404;2023-07-29T00:41:15;95437.91;;;19.64;96.45
11676;BME280;5894;42.768;23.404;2023-07-29T00:43:42;95470.38;;;19.89;95.92
11676;BME280;5894;42.768;23.404;2023-07-29T00:46:09;95444.50;;;19.70;95.70
11676;BME280;5894;42.768;23.404;2023-07-29T00:48:38;95451.06;;;19.76;95.17
11676;BME280;5894;42.768;23.404;2023-07-29T00:51:05;95467.28;;;19.87;94.72
11676;BME280;5894;42.768;23.404;2023-07-29T00:53:32;95463.41;;;19.84;94.30
11676;BME280;5894;42.768;23.404;2023-07-29T00:56:01;95446.78;;;19.68;94.80
11676;BME280;5894;42.768;23.404;2023-07-29T00:58:28;95468.69;;;19.77;94.79
11676;BME280;5894;42.768;23.404;2023-07-29T01:00:55;95473.59;;;19.75;94.22
11676;BME280;5894;42.768;23.404;2023-07-29T01:03:22;95465.16;;;19.73;93.20
11676;BME280;5894;42.768;23.404;2023-07-29T01:05:59;95465.13;;;19.69;93.13
11676;BME280;5894;42.768;23.404;2023-07-29T01:08:46;95468.53;;;19.66;94.06
11676;BME280;5894;42.768;23.404;2023-07-29T01:11:28;95463.13;;;19.63;97.06
11676;BME280;5894;42.768;23.404;2023-07-29T01:14:04;95464.66;;;19.64;98.38
11676;BME280;5894;42.768;23.404;2023-07-29T01:16:37;95467.34;;;19.64;98.84
11676;BME280;5894;42.768;23.404;2023-07-29T01:19:06;95430.59;;;19.34;99.19
11676;BME280;5894;42.768;23.404;2023-07-29T01:21:37;95436.78;;;19.38;98.94
11676;BME280;5894;42.768;23.404;2023-07-29T01:24:06;95470.63;;;19.54;99.14
11676;BME280;5894;42.768;23.404;2023-07-29T01:26:33;95477.50;;;19.51;99.29
11676;BME280;5894;42.768;23.404;2023-07-29T01:29:02;95456.22;;;19.35;99.34
11676;BME280;5894;42.768;23.404;2023-07-29T01:31:33;95477.69;;;19.42;99.06
11676;BME280;5894;42.768;23.404;2023-07-29T01:34:07;95472.31;;;19.39;99.05
11676;BME280;5894;42.768;23.404;2023-07-29T01:36:37;95456.88;;;19.29;99.13
11676;BME280;5894;42.768;23.404;2023-07-29T01:39:08;95477.59;;;19.35;99.81
11676;BME280;5894;42.768;23.404;2023-07-29T01:41:39;95469.50;;;19.32;99.36
11676;BME280;5894;42.768;23.404;2023-07-29T01:44:07;95473.72;;;19.33;97.96
11676;BME280;5894;42.768;23.404;2023-07-29T01:46:36;95378.03;;;18.66;96.11
11676;BME280;5894;42.768;23.404;2023-07-29T01:49:04;95470.13;;;19.22;96.12
11676;BME280;5894;42.768;23.404;2023-07-29T01:51:31;95466.63;;;19.18;95.60
11676;BME280;5894;42.768;23.404;2023-07-29T01:53:58;95474.59;;;19.14;95.65
11676;BME280;5894;42.768;23.404;2023-07-29T01:56:27;95468.47;;;19.14;96.11
11676;BME280;5894;42.768;23.404;2023-07-29T01:58:55;95471.09;;;19.10;96.61
11676;BME280;5894;42.768;23.404;2023-07-29T02:01:22;95468.78;;;19.09;97.20
11676;BME280;5894;42.768;23.404;2023-07-29T02:03:49;95476.44;;;19.10;97.36
11676;BME280;5894;42.768;23.404;2023-07-29T02:06:20;95479.84;;;19.07;98.26
11676;BME280;5894;42.768;23.404;2023-07-29T02:08:48;95481.31;;;19.04;99.01
11676;BME280;5894;42.768;23.404;2023-07-29T02:11:15;95479.06;;;19.06;99.28
11676;BME280;5894;42.768;23.404;2023-07-29T02:13:43;95473.63;;;19.03;98.78
11676;BME280;5894;42.768;23.404;2023-07-29T02:16:10;95479.41;;;19.05;98.47
11676;BME280;5894;42.768;23.404;2023-07-29T02:18:37;95477.50;;;19.05;98.95
11676;BME280;5894;42.768;23.404;2023-07-29T02:21:04;95475.53;;;19.02;99.09
11676;BME280;5894;42.768;23.404;2023-07-29T02:23:31;95476.28;;;18.99;99.21
11676;BME280;5894;42.768;23.404;2023-07-29T02:25:59;95474.72;;;18.98;99.14
11676;BME280;5894;42.768;23.404;2023-07-29T02:28:25;95481.19;;;18.97;97.92
11676;BME280;5894;42.768;23.404;2023-07-29T02:31:11;95477.69;;;18.93;96.95
11676;BME280;5894;42.768;23.404;2023-07-29T02:33:39;95480.34;;;18.93;96.77
11676;BME280;5894;42.768;23.404;2023-07-29T02:36:06;95485.25;;;18.88;96.80
11676;BME280;5894;42.768;23.404;2023-07-29T02:38:33;95484.13;;;18.89;97.03
11676;BME280;5894;42.768;23.404;2023-07-29T02:41:00;95479.34;;;18.79;96.59
11676;BME280;5894;42.768;23.404;2023-07-29T02:43:27;95494.38;;;18.87;96.99
11676;BME280;5894;42.768;23.404;2023-07-29T02:45:54;95486.72;;;18.85;96.86
11676;BME280;5894;42.768;23.404;2023-07-29T02:48:22;95486.28;;;18.83;94.70
11676;BME280;5894;42.768;23.404;2023-07-29T02:50:49;95483.00;;;18.70;95.44
11676;BME280;5894;42.768;23.404;2023-07-29T02:53:16;95489.28;;;18.78;95.02
11676;BME280;5894;42.768;23.404;2023-07-29T02:55:43;95493.41;;;18.76;95.41
11676;BME280;5894;42.768;23.404;2023-07-29T02:58:10;95493.69;;;18.70;96.31
11676;BME280;5894;42.768;23.404;2023-07-29T03:00:37;95493.28;;;18.68;96.08
11676;BME280;5894;42.768;23.404;2023-07-29T03:03:05;95487.47;;;18.63;96.73
11676;BME280;5894;42.768;23.404;2023-07-29T03:05:34;95493.16;;;18.61;96.48
11676;BME280;5894;42.768;23.404;2023-07-29T03:08:01;95497.38;;;18.62;96.02
11676;BME280;5894;42.768;23.404;2023-07-29T03:10:28;95498.44;;;18.58;96.56
11676;BME280;5894;42.768;23.404;2023-07-29T03:12:55;95501.50;;;18.60;96.02
11676;BME280;5894;42.768;23.404;2023-07-29T03:15:23;95501.78;;;18.55;95.52
11676;BME280;5894;42.768;23.404;2023-07-29T03:17:51;95506.84;;;18.60;94.00
11676;BME280;5894;42.768;23.404;2023-07-29T03:20:19;95509.44;;;18.56;94.76
11676;BME280;5894;42.768;23.404;2023-07-29T03:22:47;95500.22;;;18.54;95.18
11676;BME280;5894;42.768;23.404;2023-07-29T03:25:14;95502.56;;;18.55;93.27
11676;BME280;5894;42.768;23.404;2023-07-29T03:27:41;95502.47;;;18.52;93.95
11676;BME280;5894;42.768;23.404;2023-07-29T03:30:09;95507.03;;;18.51;93.93
11676;BME280;5894;42.768;23.404;2023-07-29T03:32:42;95452.97;;;18.16;94.24
11676;BME280;5894;42.768;23.404;2023-07-29T03:35:11;95501.22;;;18.46;94.57
11676;BME280;5894;42.768;23.404;2023-07-29T03:37:39;95508.91;;;18.47;94.68
11676;BME280;5894;42.768;23.404;2023-07-29T03:40:08;95516.47;;;18.45;95.47
11676;BME280;5894;42.768;23.404;2023-07-29T03:42:35;95512.59;;;18.43;95.93
11676;BME280;5894;42.768;23.404;2023-07-29T03:45:03;95511.06;;;18.42;96.50
11676;BME280;5894;42.768;23.404;2023-07-29T03:47:30;95510.28;;;18.41;96.44
11676;BME280;5894;42.768;23.404;2023-07-29T03:49:58;95509.25;;;18.46;96.96
11676;BME280;5894;42.768;23.404;2023-07-29T03:52:25;95520.63;;;18.43;97.50
11676;BME280;5894;42.768;23.404;2023-07-29T03:54:52;95508.38;;;18.42;98.05
11676;BME280;5894;42.768;23.404;2023-07-29T03:57:21;95508.38;;;18.42;98.33
11676;BME280;5894;42.768;23.404;2023-07-29T03:59:48;95503.06;;;18.42;99.01
11676;BME280;5894;42.768;23.404;2023-07-29T04:02:15;95507.63;;;18.41;99.80
11676;BME280;5894;42.768;23.404;2023-07-29T04:04:44;95502.69;;;18.43;99.92
11676;BME280;5894;42.768;23.404;2023-07-29T04:07:13;95507.69;;;18.45;100.00
11676;BME280;5894;42.768;23.404;2023-07-29T04:09:40;95499.34;;;18.46;100.00
11676;BME280;5894;42.768;23.404;2023-07-29T04:12:09;95476.44;;;18.26;100.00
11676;BME280;5894;42.768;23.404;2023-07-29T04:14:37;95509.72;;;18.51;99.64
11676;BME280;5894;42.768;23.404;2023-07-29T04:17:05;95505.16;;;18.52;99.57
11676;BME280;5894;42.768;23.404;2023-07-29T04:19:32;95510.91;;;18.54;100.00
11676;BME280;5894;42.768;23.404;2023-07-29T04:21:59;95507.13;;;18.55;100.00
11676;BME280;5894;42.768;23.404;2023-07-29T04:24:27;95516.69;;;18.56;100.00
11676;BME280;5894;42.768;23.404;2023-07-29T04:26:54;95512.53;;;18.58;100.00
11676;BME280;5894;42.768;23.404;2023-07-29T04:29:20;95519.03;;;18.57;100.00
11676;BME280;5894;42.768;23.404;2023-07-29T04:31:49;95524.06;;;18.62;100.00
11676;BME280;5894;42.768;23.404;2023-07-29T04:34:17;95522.59;;;18.65;100.00
11676;BME280;5894;42.768;23.404;2023-07-29T04:36:44;95521.91;;;18.68;100.00
11676;BME280;5894;42.768;23.404;2023-07-29T04:39:11;95521.13;;;18.67;100.00
11676;BME280;5894;42.768;23.404;2023-07-29T04:41:38;95516.25;;;18.73;100.00
11676;BME280;5894;42.768;23.404;2023-07-29T04:44:05;95521.59;;;18.73;100.00
11676;BME280;5894;42.768;23.404;2023-07-29T04:46:32;95527.03;;;18.77;100.00
11676;BME280;5894;42.768;23.404;2023-07-29T04:49:01;95524.78;;;18.79;100.00
11676;BME280;5894;42.768;23.404;2023-07-29T04:51:28;95510.78;;;18.66;100.00
11676;BME280;5894;42.768;23.404;2023-07-29T04:53:55;95537.47;;;18.85;100.00
11676;BME280;5894;42.768;23.404;2023-07-29T04:56:22;95542.13;;;18.88;100.00
11676;BME280;5894;42.768;23.404;2023-07-29T04:58:49;95535.28;;;18.91;100.00
11676;BME280;5894;42.768;23.404;2023-07-29T05:01:16;95535.81;;;19.00;100.00
11676;BME280;5894;42.768;23.404;2023-07-29T05:03:44;95540.53;;;19.06;100.00
11676;BME280;5894;42.768;23.404;2023-07-29T05:06:13;95545.63;;;19.15;100.00
11676;BME280;5894;42.768;23.404;2023-07-29T05:08:40;95543.91;;;19.26;100.00
11676;BME280;5894;42.768;23.404;2023-07-29T05:11:07;95536.44;;;19.35;100.00
11676;BME280;5894;42.768;23.404;2023-07-29T05:13:34;95540.41;;;19.45;100.00
11676;BME280;5894;42.768;23.404;2023-07-29T05:16:01;95541.38;;;19.56;100.00
11676;BME280;5894;42.768;23.404;2023-07-29T05:18:29;95540.41;;;19.68;100.00
11676;BME280;5894;42.768;23.404;2023-07-29T05:20:56;95546.78;;;19.86;100.00
11676;BME280;5894;42.768;23.404;2023-07-29T05:23:24;95545.13;;;20.04;99.61
11676;BME280;5894;42.768;23.404;2023-07-29T05:25:51;95543.06;;;20.21;98.54
11676;BME280;5894;42.768;23.404;2023-07-29T05:28:18;95545.56;;;20.36;99.47
11676;BME280;5894;42.768;23.404;2023-07-29T05:30:45;95556.81;;;20.49;96.32
11676;BME280;5894;42.768;23.404;2023-07-29T05:33:12;95558.50;;;20.61;94.62
11676;BME280;5894;42.768;23.404;2023-07-29T05:35:39;95551.78;;;20.74;93.06
11676;BME280;5894;42.768;23.404;2023-07-29T05:38:07;95556.09;;;20.85;89.43
11676;BME280;5894;42.768;23.404;2023-07-29T05:40:35;95553.19;;;21.01;87.93
11676;BME280;5894;42.768;23.404;2023-07-29T05:43:03;95557.88;;;21.11;86.54
11676;BME280;5894;42.768;23.404;2023-07-29T05:45:30;95556.16;;;21.30;84.03
11676;BME280;5894;42.768;23.404;2023-07-29T05:47:57;95551.25;;;21.35;82.82
11676;BME280;5894;42.768;23.404;2023-07-29T05:50:24;95565.16;;;21.48;82.50
11676;BME280;5894;42.768;23.404;2023-07-29T05:52:52;95559.53;;;21.64;80.97
11676;BME280;5894;42.768;23.404;2023-07-29T05:55:19;95562.69;;;21.76;80.33
11676;BME280;5894;42.768;23.404;2023-07-29T05:57:47;95565.81;;;21.85;79.33
11676;BME280;5894;42.768;23.404;2023-07-29T06:00:15;95555.53;;;21.94;78.16
11676;BME280;5894;42.768;23.404;2023-07-29T06:02:42;95552.91;;;22.02;76.38
11676;BME280;5894;42.768;23.404;2023-07-29T06:05:13;95559.47;;;22.08;76.42
11676;BME280;5894;42.768;23.404;2023-07-29T06:07:41;95564.88;;;22.11;76.47
11676;BME280;5894;42.768;23.404;2023-07-29T06:10:10;95560.66;;;22.14;75.43
11676;BME280;5894;42.768;23.404;2023-07-29T06:12:38;95560.28;;;22.15;76.27
11676;BME280;5894;42.768;23.404;2023-07-29T06:15:07;95567.22;;;22.23;76.37
11676;BME280;5894;42.768;23.404;2023-07-29T06:17:34;95559.59;;;22.29;75.80
11676;BME280;5894;42.768;23.404;2023-07-29T06:20:02;95561.53;;;22.36;74.85
11676;BME280;5894;42.768;23.404;2023-07-29T06:22:29;95552.00;;;22.42;74.88
11676;BME280;5894;42.768;23.404;2023-07-29T06:24:56;95556.25;;;22.50;74.54
11676;BME280;5894;42.768;23.404;2023-07-29T06:27:23;95555.50;;;22.60;74.83
11676;BME280;5894;42.768;23.404;2023-07-29T06:29:51;95546.31;;;22.68;73.76
11676;BME280;5894;42.768;23.404;2023-07-29T06:32:19;95555.97;;;22.76;73.13
11676;BME280;5894;42.768;23.404;2023-07-29T06:34:46;95552.84;;;22.74;71.41
11676;BME280;5894;42.768;23.404;2023-07-29T06:37:13;95545.56;;;22.71;70.15
11676;BME280;5894;42.768;23.404;2023-07-29T06:39:40;95542.09;;;22.74;70.13
11676;BME280;5894;42.768;23.404;2023-07-29T06:42:07;95538.72;;;22.84;70.84
11676;BME280;5894;42.768;23.404;2023-07-29T06:44:34;95524.16;;;22.92;71.68
11676;BME280;5894;42.768;23.404;2023-07-29T06:47:02;95525.72;;;23.04;72.58
11676;BME280;5894;42.768;23.404;2023-07-29T06:49:30;95532.25;;;23.10;71.93
11676;BME280;5894;42.768;23.404;2023-07-29T06:51:57;95531.09;;;23.18;73.51
11676;BME280;5894;42.768;23.404;2023-07-29T06:54:24;95528.78;;;23.27;73.26
11676;BME280;5894;42.768;23.404;2023-07-29T06:56:52;95514.19;;;23.32;71.17
11676;BME280;5894;42.768;23.404;2023-07-29T06:59:19;95524.63;;;23.51;71.71
11676;BME280;5894;42.768;23.404;2023-07-29T07:01:47;95531.16;;;23.61;71.62
11676;BME280;5894;42.768;23.404;2023-07-29T07:04:14;95533.84;;;23.71;71.44
11676;BME280;5894;42.768;23.404;2023-07-29T07:06:42;95472.66;;;23.47;70.74
11676;BME280;5894;42.768;23.404;2023-07-29T07:09:09;95534.56;;;24.04;68.69
11676;BME280;5894;42.768;23.404;2023-07-29T07:11:36;95531.84;;;24.18;64.22
11676;BME280;5894;42.768;23.404;2023-07-29T07:14:03;95521.06;;;24.29;65.99
11676;BME280;5894;42.768;23.404;2023-07-29T07:16:30;95523.28;;;24.48;64.97
11676;BME280;5894;42.768;23.404;2023-07-29T07:18:57;95527.06;;;24.68;61.96
11676;BME280;5894;42.768;23.404;2023-07-29T07:21:24;95527.38;;;24.81;61.63
11676;BME280;5894;42.768;23.404;2023-07-29T07:23:52;95531.91;;;25.02;61.89
11676;BME280;5894;42.768;23.404;2023-07-29T07:26:19;95536.41;;;25.22;62.25
11676;BME280;5894;42.768;23.404;2023-07-29T07:28:46;95525.44;;;25.44;62.11
11676;BME280;5894;42.768;23.404;2023-07-29T07:31:14;95524.88;;;25.67;60.56
11676;BME280;5894;42.768;23.404;2023-07-29T07:33:41;95531.72;;;25.82;58.93
11676;BME280;5894;42.768;23.404;2023-07-29T07:36:09;95512.69;;;25.92;58.01
11676;BME280;5894;42.768;23.404;2023-07-29T07:38:36;95522.56;;;26.06;57.26
11676;BME280;5894;42.768;23.404;2023-07-29T07:41:04;95523.94;;;26.25;53.17
11676;BME280;5894;42.768;23.404;2023-07-29T07:43:31;95516.84;;;26.38;52.74
11676;BME280;5894;42.768;23.404;2023-07-29T07:45:59;95497.41;;;26.50;51.93
11676;BME280;5894;42.768;23.404;2023-07-29T07:48:27;95517.84;;;26.82;50.42
11676;BME280;5894;42.768;23.404;2023-07-29T07:50:54;95514.84;;;27.07;51.14
11676;BME280;5894;42.768;23.404;2023-07-29T07:53:21;95513.59;;;27.38;49.00
11676;BME280;5894;42.768;23.404;2023-07-29T07:55:48;95507.03;;;27.62;46.53
11676;BME280;5894;42.768;23.404;2023-07-29T07:58:16;95511.69;;;27.85;45.69
11676;BME280;5894;42.768;23.404;2023-07-29T08:00:43;95510.47;;;28.09;45.45
11676;BME280;5894;42.768;23.404;2023-07-29T08:03:10;95509.59;;;28.36;46.65
11676;BME280;5894;42.768;23.404;2023-07-29T08:05:37;95516.63;;;28.73;46.88
11676;BME280;5894;42.768;23.404;2023-07-29T08:08:04;95511.34;;;29.02;45.90
11676;BME280;5894;42.768;23.404;2023-07-29T08:10:31;95513.41;;;29.30;46.00
11676;BME280;5894;42.768;23.404;2023-07-29T08:12:58;95513.53;;;29.59;45.48
11676;BME280;5894;42.768;23.404;2023-07-29T08:15:27;95504.84;;;29.80;44.45
11676;BME280;5894;42.768;23.404;2023-07-29T08:17:54;95519.16;;;30.13;42.16
11676;BME280;5894;42.768;23.404;2023-07-29T08:20:21;95524.47;;;30.33;41.43
11676;BME280;5894;42.768;23.404;2023-07-29T08:22:47;95521.84;;;30.58;41.68
11676;BME280;5894;42.768;23.404;2023-07-29T08:25:15;95517.22;;;30.97;42.06
11676;BME280;5894;42.768;23.404;2023-07-29T08:27:41;95510.28;;;31.34;40.74
11676;BME280;5894;42.768;23.404;2023-07-29T08:30:09;95507.00;;;31.52;39.06
11676;BME280;5894;42.768;23.404;2023-07-29T08:32:38;95506.94;;;31.77;38.79
11676;BME280;5894;42.768;23.404;2023-07-29T08:35:05;95507.09;;;32.08;38.47
11676;BME280;5894;42.768;23.404;2023-07-29T08:37:32;95496.06;;;32.33;38.72
11676;BME280;5894;42.768;23.404;2023-07-29T08:39:59;95490.13;;;32.48;37.46
11676;BME280;5894;42.768;23.404;2023-07-29T08:42:29;95465.50;;;32.38;37.20
11676;BME280;5894;42.768;23.404;2023-07-29T08:44:59;95463.25;;;32.46;36.78
11676;BME280;5894;42.768;23.404;2023-07-29T08:47:28;95485.06;;;32.68;36.07
11676;BME280;5894;42.768;23.404;2023-07-29T08:49:57;95477.44;;;32.63;36.68
11676;BME280;5894;42.768;23.404;2023-07-29T08:52:26;95478.50;;;32.56;36.63
11676;BME280;5894;42.768;23.404;2023-07-29T08:54:54;95480.13;;;32.54;36.24
11676;BME280;5894;42.768;23.404;2023-07-29T08:57:22;95478.00;;;32.49;35.48
11676;BME280;5894;42.768;23.404;2023-07-29T08:59:50;95476.53;;;32.35;35.24
11676;BME280;5894;42.768;23.404;2023-07-29T09:02:17;95476.72;;;32.19;32.25
11676;BME280;5894;42.768;23.404;2023-07-29T09:04:45;95472.59;;;31.80;32.18
11676;BME280;5894;42.768;23.404;2023-07-29T09:07:13;95471.75;;;31.70;34.18
11676;BME280;5894;42.768;23.404;2023-07-29T09:09:40;95467.81;;;31.58;33.98
11676;BME280;5894;42.768;23.404;2023-07-29T09:12:08;95471.56;;;31.52;34.62
11676;BME280;5894;42.768;23.404;2023-07-29T09:14:37;95468.75;;;31.43;34.60
11676;BME280;5894;42.768;23.404;2023-07-29T09:17:07;95460.50;;;31.21;34.33
11676;BME280;5894;42.768;23.404;2023-07-29T09:19:34;95463.41;;;31.01;35.19
11676;BME280;5894;42.768;23.404;2023-07-29T09:22:02;95463.19;;;30.95;36.45
11676;BME280;5894;42.768;23.404;2023-07-29T09:24:31;95459.81;;;30.91;37.09
11676;BME280;5894;42.768;23.404;2023-07-29T09:26:59;95456.53;;;30.84;37.14
11676;BME280;5894;42.768;23.404;2023-07-29T09:29:28;95457.19;;;30.75;35.40
11676;BME280;5894;42.768;23.404;2023-07-29T09:32:18;95449.69;;;30.67;36.17
11676;BME280;5894;42.768;23.404;2023-07-29T09:34:45;95447.38;;;30.65;37.00
11676;BME280;5894;42.768;23.404;2023-07-29T09:37:16;95448.88;;;30.53;36.99
11676;BME280;5894;42.768;23.404;2023-07-29T09:39:46;95441.78;;;30.43;36.99
11676;BME280;5894;42.768;23.404;2023-07-29T09:42:17;95434.25;;;30.35;37.49
11676;BME280;5894;42.768;23.404;2023-07-29T09:44:44;95435.75;;;30.23;37.62
11676;BME280;5894;42.768;23.404;2023-07-29T09:47:19;95428.13;;;30.18;38.28
11676;BME280;5894;42.768;23.404;2023-07-29T09:49:47;95431.91;;;30.08;38.56
11676;BME280;5894;42.768;23.404;2023-07-29T09:52:15;95428.53;;;30.04;38.81
11676;BME280;5894;42.768;23.404;2023-07-29T09:54:44;95430.91;;;30.02;39.05
11676;BME280;5894;42.768;23.404;2023-07-29T09:57:11;95430.13;;;30.01;39.33
11676;BME280;5894;42.768;23.404;2023-07-29T09:59:40;95422.03;;;29.85;38.42
11676;BME280;5894;42.768;23.404;2023-07-29T10:02:13;95429.22;;;29.91;39.09
11676;BME280;5894;42.768;23.404;2023-07-29T10:04:41;95431.91;;;29.79;37.62
11676;BME280;5894;42.768;23.404;2023-07-29T10:07:09;95420.44;;;29.71;38.09
11676;BME280;5894;42.768;23.404;2023-07-29T10:09:36;95426.28;;;29.70;38.41
11676;BME280;5894;42.768;23.404;2023-07-29T10:12:07;95423.69;;;29.66;37.67
11676;BME280;5894;42.768;23.404;2023-07-29T10:14:34;95416.03;;;29.61;37.62
11676;BME280;5894;42.768;23.404;2023-07-29T10:17:02;95416.56;;;29.56;37.23
11676;BME280;5894;42.768;23.404;2023-07-29T10:19:30;95416.56;;;29.56;37.80
11676;BME280;5894;42.768;23.404;2023-07-29T10:21:59;95410.03;;;29.53;39.28
11676;BME280;5894;42.768;23.404;2023-07-29T10:24:30;95406.75;;;29.46;38.86
11676;BME280;5894;42.768;23.404;2023-07-29T10:27:00;95408.34;;;29.43;38.51
11676;BME280;5894;42.768;23.404;2023-07-29T10:29:31;95395.97;;;29.42;39.02
11676;BME280;5894;42.768;23.404;2023-07-29T10:32:01;95386.69;;;29.40;38.15
11676;BME280;5894;42.768;23.404;2023-07-29T10:34:29;95390.19;;;29.40;38.17
11676;BME280;5894;42.768;23.404;2023-07-29T10:36:57;95377.03;;;29.39;39.39
11676;BME280;5894;42.768;23.404;2023-07-29T10:39:25;95384.50;;;29.35;39.79
11676;BME280;5894;42.768;23.404;2023-07-29T10:41:56;95367.63;;;29.27;39.09
11676;BME280;5894;42.768;23.404;2023-07-29T10:44:50;95365.66;;;29.28;40.52
11676;BME280;5894;42.768;23.404;2023-07-29T10:47:20;95370.50;;;29.36;40.55
11676;BME280;5894;42.768;23.404;2023-07-29T10:49:50;95368.56;;;29.37;40.22
11676;BME280;5894;42.768;23.404;2023-07-29T10:52:30;95370.50;;;29.36;39.96
11676;BME280;5894;42.768;23.404;2023-07-29T10:54:57;95350.97;;;29.25;41.61
11676;BME280;5894;42.768;23.404;2023-07-29T10:57:32;95361.56;;;29.36;39.54
11676;BME280;5894;42.768;23.404;2023-07-29T11:00:01;95352.31;;;29.33;40.93
11676;BME280;5894;42.768;23.404;2023-07-29T11:02:31;95355.28;;;29.39;41.65
11676;BME280;5894;42.768;23.404;2023-07-29T11:05:00;95354.44;;;29.42;39.92
11676;BME280;5894;42.768;23.404;2023-07-29T11:07:31;95347.41;;;29.44;39.39
11676;BME280;5894;42.768;23.404;2023-07-29T11:10:09;95341.53;;;29.46;41.36
11676;BME280;5894;42.768;23.404;2023-07-29T11:12:41;95337.94;;;29.49;41.48
11676;BME280;5894;42.768;23.404;2023-07-29T11:15:23;95337.09;;;29.52;38.37
11676;BME280;5894;42.768;23.404;2023-07-29T11:17:53;95343.22;;;29.56;37.62
11676;BME280;5894;42.768;23.404;2023-07-29T11:20:21;95340.06;;;29.58;36.06
11676;BME280;5894;42.768;23.404;2023-07-29T11:22:49;95334.94;;;29.60;37.07
11676;BME280;5894;42.768;23.404;2023-07-29T11:25:17;95336.03;;;29.62;37.88
11676;BME280;5894;42.768;23.404;2023-07-29T11:27:45;95339.44;;;29.66;38.90
11676;BME280;5894;42.768;23.404;2023-07-29T11:30:15;95343.16;;;29.72;38.81
11676;BME280;5894;42.768;23.404;2023-07-29T11:32:43;95334.34;;;29.81;39.63
11676;BME280;5894;42.768;23.404;2023-07-29T11:35:11;95338.84;;;29.87;36.29
11676;BME280;5894;42.768;23.404;2023-07-29T11:37:41;95329.06;;;29.90;38.10
11676;BME280;5894;42.768;23.404;2023-07-29T11:40:09;95329.22;;;29.99;35.72
11676;BME280;5894;42.768;23.404;2023-07-29T11:42:37;95326.72;;;30.05;38.28
11676;BME280;5894;42.768;23.404;2023-07-29T11:45:06;95322.59;;;30.13;38.78
11676;BME280;5894;42.768;23.404;2023-07-29T11:47:35;95316.06;;;30.23;38.35
11676;BME280;5894;42.768;23.404;2023-07-29T11:50:03;95298.69;;;30.20;38.34
11676;BME280;5894;42.768;23.404;2023-07-29T11:52:31;95282.66;;;30.22;38.11
11676;BME280;5894;42.768;23.404;2023-07-29T11:55:00;95316.66;;;30.56;37.01
11676;BME280;5894;42.768;23.404;2023-07-29T11:57:28;95318.50;;;30.59;34.95
11676;BME280;5894;42.768;23.404;2023-07-29T11:59:56;95304.13;;;30.71;34.53
11676;BME280;5894;42.768;23.404;2023-07-29T12:02:24;95303.88;;;30.78;31.96
11676;BME280;5894;42.768;23.404;2023-07-29T12:04:53;95278.63;;;30.65;33.32
11676;BME280;5894;42.768;23.404;2023-07-29T12:07:20;95302.09;;;30.97;34.01
11676;BME280;5894;42.768;23.404;2023-07-29T12:09:47;95301.72;;;31.20;33.17
11676;BME280;5894;42.768;23.404;2023-07-29T12:12:15;95299.41;;;31.53;29.99
11676;BME280;5894;42.768;23.404;2023-07-29T12:14:45;95296.72;;;31.75;29.46
11676;BME280;5894;42.768;23.404;2023-07-29T12:17:13;95290.19;;;32.03;27.48
11676;BME280;5894;42.768;23.404;2023-07-29T12:19:41;95285.31;;;32.29;27.51
11676;BME280;5894;42.768;23.404;2023-07-29T12:22:10;95289.38;;;32.65;28.45
11676;BME280;5894;42.768;23.404;2023-07-29T12:24:38;95240.44;;;32.70;28.87
11676;BME280;5894;42.768;23.404;2023-07-29T12:27:10;95291.03;;;33.30;27.17
11676;BME280;5894;42.768;23.404;2023-07-29T12:29:40;95277.22;;;33.42;27.93
11676;BME280;5894;42.768;23.404;2023-07-29T12:32:08;95288.56;;;33.68;27.88
11676;BME280;5894;42.768;23.404;2023-07-29T12:34:37;95290.22;;;33.93;27.05
11676;BME280;5894;42.768;23.404;2023-07-29T12:37:05;95285.41;;;34.21;26.06
11676;BME280;5894;42.768;23.404;2023-07-29T12:39:35;95277.09;;;34.48;24.98
11676;BME280;5894;42.768;23.404;2023-07-29T12:42:06;95274.56;;;34.78;24.01
11676;BME280;5894;42.768;23.404;2023-07-29T12:44:35;95283.22;;;35.00;25.47
11676;BME280;5894;42.768;23.404;2023-07-29T12:47:04;95270.50;;;35.12;24.00
11676;BME280;5894;42.768;23.404;2023-07-29T12:49:32;95274.97;;;35.24;25.53
11676;BME280;5894;42.768;23.404;2023-07-29T12:51:59;95283.06;;;35.42;24.35
11676;BME280;5894;42.768;23.404;2023-07-29T12:54:27;95278.06;;;35.55;24.82
11676;BME280;5894;42.768;23.404;2023-07-29T12:56:55;95282.63;;;35.58;23.58
11676;BME280;5894;42.768;23.404;2023-07-29T12:59:22;95280.84;;;35.70;23.35
11676;BME280;5894;42.768;23.404;2023-07-29T13:01:49;95278.19;;;35.61;23.46
11676;BME280;5894;42.768;23.404;2023-07-29T13:04:16;95283.13;;;35.72;24.07
11676;BME280;5894;42.768;23.404;2023-07-29T13:06:43;95286.91;;;35.74;25.00